Time;durP1;ratioP1;P1;durP2;ratioP2;P2;SDS_P1;SDS_P2;PMS_P1;PMS_P2;Temp;Humidity;BMP_temperature;BMP_pressure;BME280_temperature;BME280_humidity;BME280_pressure;Samples;Min_cycle;Max_cycle;Signal;HPM_P1;HPM_P2
2022/07/18 00:02:16;;;;;;;1.50;1.40;;;15.10;94.30;;;;;;5071698;28;20899;-85
2022/07/18 00:04:42;;;;;;;1.40;1.40;;;15.10;94.50;;;;;;5071306;28;20429;-85
2022/07/18 00:07:10;;;;;;;4.93;3.17;;;15.00;94.70;;;;;;5070916;28;20614;-85
2022/07/18 00:09:36;;;;;;;1.53;1.53;;;15.00;95.00;;;;;;5071154;28;20183;-85
2022/07/18 00:12:03;;;;;;;1.83;1.20;;;15.00;95.30;;;;;;5059560;28;20461;-85
2022/07/18 00:14:29;;;;;;;1.53;1.43;;;14.90;95.10;;;;;;5070337;28;20851;-85
2022/07/18 00:16:54;;;;;;;1.60;1.50;;;14.90;95.40;;;;;;5071329;28;20421;-85
2022/07/18 00:19:20;;;;;;;2.00;1.37;;;14.90;95.20;;;;;;5070619;28;20195;-85
2022/07/18 00:21:45;;;;;;;8.00;1.80;;;14.80;94.80;;;;;;5071030;28;20179;-85
2022/07/18 00:24:11;;;;;;;2.50;1.70;;;14.80;94.70;;;;;;5070391;28;20199;-85
2022/07/18 00:26:37;;;;;;;1.30;1.20;;;14.80;94.90;;;;;;5059994;28;20187;-85
2022/07/18 00:29:03;;;;;;;1.50;1.30;;;14.80;95.00;;;;;;5071670;28;20241;-85
2022/07/18 00:31:28;;;;;;;0.90;0.90;;;14.70;94.80;;;;;;5065076;28;20212;-85
2022/07/18 00:33:54;;;;;;;22.23;2.20;;;14.70;94.80;;;;;;5064744;28;20175;-85
2022/07/18 00:36:19;;;;;;;1.90;1.80;;;14.60;95.10;;;;;;5070733;28;20225;-83
2022/07/18 00:38:45;;;;;;;2.13;1.50;;;14.60;95.30;;;;;;5070605;28;20819;-84
2022/07/18 00:41:16;;;;;;;5.23;1.33;;;14.60;95.50;;;;;;5071192;28;20230;-85
2022/07/18 00:43:42;;;;;;;2.43;2.17;;;14.50;95.80;;;;;;5070510;28;20182;-85
2022/07/18 00:46:08;;;;;;;1.10;1.00;;;14.50;95.80;;;;;;5071120;28;20417;-84
2022/07/18 00:48:34;;;;;;;1.63;1.53;;;14.50;95.90;;;;;;5070423;28;20550;-85
2022/07/18 00:50:59;;;;;;;1.53;1.43;;;14.50;95.90;;;;;;5069890;28;20514;-85
2022/07/18 00:53:25;;;;;;;2.07;1.63;;;14.40;96.30;;;;;;5071124;28;20197;-85
2022/07/18 00:55:52;;;;;;;1.40;1.30;;;14.40;96.40;;;;;;5069874;28;20179;-85
2022/07/18 00:58:18;;;;;;;2.30;1.67;;;14.30;97.10;;;;;;5069375;28;20779;-85
2022/07/18 01:03:28;;;;;;;6.00;2.10;;;14.20;96.90;;;;;;5071887;28;20189;-85
2022/07/18 01:05:53;;;;;;;2.07;1.97;;;14.20;97.00;;;;;;5064880;28;20931;-85
2022/07/18 01:08:19;;;;;;;1.17;1.03;;;14.20;97.30;;;;;;5066816;28;20437;-84
2022/07/18 01:10:45;;;;;;;2.50;1.63;;;14.10;97.30;;;;;;5069867;28;20178;-85
2022/07/18 01:13:10;;;;;;;25.63;2.77;;;14.10;97.30;;;;;;5069602;28;20179;-85
2022/07/18 01:15:36;;;;;;;1.53;1.50;;;14.00;97.30;;;;;;5071239;28;20175;-85
2022/07/18 01:18:02;;;;;;;3.03;1.47;;;14.00;97.30;;;;;;5056799;28;20259;-85
2022/07/18 01:20:30;;;;;;;5.60;3.93;;;13.90;97.30;;;;;;5069757;28;20182;-85
2022/07/18 01:22:56;;;;;;;3.10;2.10;;;13.90;97.30;;;;;;5069213;28;20508;-85
2022/07/18 01:25:22;;;;;;;17.60;1.90;;;13.90;97.30;;;;;;5070064;28;20448;-84
2022/07/18 01:27:48;;;;;;;2.93;2.00;;;13.90;97.30;;;;;;5069551;28;20974;-85
2022/07/18 01:30:14;;;;;;;1.40;1.30;;;13.80;97.30;;;;;;5069987;28;20214;-85
2022/07/18 01:32:41;;;;;;;1.80;1.70;;;13.80;97.30;;;;;;5070002;28;20273;-84
2022/07/18 01:35:08;;;;;;;18.70;2.47;;;13.80;97.30;;;;;;5068686;28;20445;-84
2022/07/18 01:37:34;;;;;;;1.60;1.30;;;13.70;97.30;;;;;;5070352;28;20509;-84
2022/07/18 01:40:00;;;;;;;2.60;1.73;;;13.70;97.30;;;;;;5070020;28;21002;-85
2022/07/18 01:42:25;;;;;;;15.07;2.57;;;13.70;97.30;;;;;;5069695;28;20206;-85
2022/07/18 01:44:51;;;;;;;2.27;1.67;;;13.70;97.30;;;;;;5069565;28;20194;-84
2022/07/18 01:47:16;;;;;;;1.53;1.40;;;13.60;97.30;;;;;;5069383;28;20183;-85
2022/07/18 01:49:42;;;;;;;2.50;1.50;;;13.60;97.30;;;;;;5068467;28;20290;-84
2022/07/18 01:52:09;;;;;;;1.10;1.10;;;13.60;97.30;;;;;;5064253;28;20271;-84
2022/07/18 01:54:36;;;;;;;1.77;1.30;;;13.50;97.30;;;;;;5060952;28;20572;-85
2022/07/18 01:57:04;;;;;;;2.77;1.90;;;13.50;97.30;;;;;;5056248;28;20471;-84
2022/07/18 01:59:30;;;;;;;8.10;3.93;;;13.50;97.30;;;;;;5069225;28;20444;-85
2022/07/18 02:01:56;;;;;;;1.50;1.40;;;13.40;97.30;;;;;;5056197;28;20422;-84
2022/07/18 02:04:59;;;;;;;5.63;1.63;;;13.40;97.30;;;;;;5068600;28;20406;-84
2022/07/18 02:07:08;;;;;;;3.13;2.03;;;13.40;97.30;;;;;;5070078;28;20175;-84
2022/07/18 02:09:33;;;;;;;1.77;1.57;;;13.40;97.30;;;;;;5068513;28;20453;-84
2022/07/18 02:11:59;;;;;;;1.87;1.40;;;13.30;97.30;;;;;;5069427;28;20199;-84
2022/07/18 02:14:24;;;;;;;1.77;1.67;;;13.30;97.30;;;;;;5069534;28;20197;-84
2022/07/18 02:16:50;;;;;;;2.97;1.90;;;13.30;97.30;;;;;;5074000;28;20174;-84
2022/07/18 02:19:15;;;;;;;2.63;2.13;;;13.20;97.30;;;;;;5072891;28;20252;-84
2022/07/18 02:21:41;;;;;;;2.07;1.93;;;13.20;97.30;;;;;;5074312;28;20232;-84
2022/07/18 02:24:07;;;;;;;2.60;2.47;;;13.20;97.30;;;;;;5073561;28;20191;-85
2022/07/18 02:26:32;;;;;;;1.73;1.33;;;13.10;97.30;;;;;;5073633;28;20504;-85
2022/07/18 02:28:58;;;;;;;3.33;2.13;;;13.10;97.30;;;;;;5075111;28;20226;-84
2022/07/18 02:31:23;;;;;;;2.83;2.00;;;13.10;97.30;;;;;;5073001;28;20206;-84
2022/07/18 02:33:49;;;;;;;2.20;1.67;;;13.10;97.30;;;;;;5075091;28;20183;-84
2022/07/18 02:36:14;;;;;;;3.13;2.27;;;13.00;97.30;;;;;;5073703;28;20171;-84
2022/07/18 02:38:40;;;;;;;1.57;1.47;;;13.00;97.30;;;;;;5074078;28;20195;-84
2022/07/18 02:41:06;;;;;;;2.30;1.80;;;13.00;97.30;;;;;;5073423;28;20171;-84
2022/07/18 02:43:31;;;;;;;1.77;1.57;;;13.00;97.30;;;;;;5074737;28;20186;-84
2022/07/18 02:45:57;;;;;;;2.43;2.07;;;13.00;97.30;;;;;;5064820;28;20171;-84
2022/07/18 02:48:22;;;;;;;6.90;2.97;;;12.90;97.30;;;;;;5073170;28;20285;-84
2022/07/18 02:50:48;;;;;;;2.23;2.03;;;12.90;97.30;;;;;;5063285;28;20275;-84
2022/07/18 02:53:13;;;;;;;2.10;1.50;;;12.90;97.30;;;;;;5072357;28;20215;-84
2022/07/18 02:55:39;;;;;;;6.73;3.57;;;12.90;97.30;;;;;;5073429;28;20183;-84
2022/07/18 02:58:04;;;;;;;2.13;1.97;;;12.80;97.30;;;;;;5073257;28;20195;-83
2022/07/18 03:00:30;;;;;;;3.13;1.60;;;12.80;97.30;;;;;;5073238;28;20179;-85
2022/07/18 03:02:56;;;;;;;1.63;1.53;;;12.80;97.30;;;;;;5070087;28;20179;-84
2022/07/18 03:05:21;;;;;;;2.40;1.93;;;12.70;97.30;;;;;;5071968;28;20181;-85
2022/07/18 03:07:47;;;;;;;1.50;1.40;;;12.70;97.30;;;;;;5072217;28;20195;-85
2022/07/18 03:10:12;;;;;;;1.60;1.50;;;12.70;97.30;;;;;;5072277;28;20171;-85
2022/07/18 03:12:41;;;;;;;5.03;1.87;;;12.70;97.30;;;;;;5072262;28;20333;-84
2022/07/18 03:15:07;;;;;;;1.30;1.30;;;12.70;97.30;;;;;;5071983;28;20583;-84
2022/07/18 03:17:32;;;;;;;2.40;2.20;;;12.60;97.30;;;;;;5073221;28;20521;-84
2022/07/18 03:19:58;;;;;;;1.83;1.67;;;12.60;97.30;;;;;;5071949;28;20174;-84
2022/07/18 03:22:25;;;;;;;1.50;1.40;;;12.60;97.30;;;;;;5073887;28;20182;-84
2022/07/18 03:24:50;;;;;;;2.33;1.90;;;12.60;97.30;;;;;;5058883;28;20421;-85
2022/07/18 03:27:16;;;;;;;2.80;2.03;;;12.60;97.30;;;;;;5072147;28;20413;-85
2022/07/18 03:29:41;;;;;;;3.17;2.53;;;12.60;97.30;;;;;;5070239;28;20230;-84
2022/07/18 03:32:07;;;;;;;1.83;1.73;;;12.50;97.30;;;;;;5071489;28;20198;-85
2022/07/18 03:34:32;;;;;;;1.30;1.20;;;12.50;97.30;;;;;;5073112;28;20527;-84
2022/07/18 03:36:58;;;;;;;1.43;1.17;;;12.50;97.30;;;;;;5061462;28;20587;-84
2022/07/18 03:39:23;;;;;;;1.97;1.80;;;12.50;97.30;;;;;;5068725;28;20193;-85
2022/07/18 03:41:51;;;;;;;3.63;1.80;;;12.50;97.30;;;;;;5071593;28;20274;-85
2022/07/18 03:44:17;;;;;;;1.37;1.27;;;12.50;97.30;;;;;;5071433;28;20179;-84
2022/07/18 03:46:43;;;;;;;2.90;2.20;;;12.50;97.30;;;;;;5071589;28;20409;-85
2022/07/18 03:49:08;;;;;;;1.30;1.20;;;12.50;97.30;;;;;;5070605;28;20199;-85
2022/07/18 03:51:34;;;;;;;4.77;2.10;;;12.50;97.30;;;;;;5071650;28;20210;-84
2022/07/18 03:54:00;;;;;;;32.03;2.50;;;12.50;97.30;;;;;;5070819;28;20250;-84
2022/07/18 03:56:26;;;;;;;1.87;1.77;;;12.50;97.30;;;;;;5071425;28;20444;-85
2022/07/18 03:58:51;;;;;;;4.73;1.97;;;12.50;97.30;;;;;;5070904;28;20195;-84
2022/07/18 04:01:17;;;;;;;1.40;1.20;;;12.50;97.30;;;;;;5071643;28;20653;-85
2022/07/18 04:03:43;;;;;;;1.47;1.37;;;12.50;97.30;;;;;;5071131;28;20188;-85
2022/07/18 04:06:08;;;;;;;2.97;2.33;;;12.60;97.30;;;;;;5071193;28;20547;-85
2022/07/18 04:08:34;;;;;;;2.07;1.93;;;12.60;97.30;;;;;;5068354;28;20219;-85
2022/07/18 04:10:59;;;;;;;2.87;1.93;;;12.60;97.30;;;;;;5060473;28;20179;-85
2022/07/18 04:13:25;;;;;;;2.37;1.73;;;12.60;97.30;;;;;;5071218;28;20187;-85
2022/07/18 04:15:50;;;;;;;1.37;1.30;;;12.60;97.30;;;;;;5072968;28;20228;-84
2022/07/18 04:18:16;;;;;;;2.67;2.47;;;12.60;97.30;;;;;;5072071;28;20187;-84
2022/07/18 04:20:41;;;;;;;1.37;1.27;;;12.70;97.30;;;;;;5071620;28;20215;-84
2022/07/18 04:23:08;;;;;;;2.50;2.33;;;12.70;97.30;;;;;;5070504;28;20196;-85
2022/07/18 04:25:37;;;;;;;2.33;1.93;;;12.70;97.30;;;;;;5072093;28;20641;-84
2022/07/18 04:28:04;;;;;;;1.70;1.60;;;12.80;97.30;;;;;;5070383;28;20461;-84
2022/07/18 04:30:31;;;;;;;3.37;1.87;;;12.80;97.30;;;;;;5070935;28;20539;-84
2022/07/18 04:32:57;;;;;;;1.80;1.70;;;12.90;97.30;;;;;;5070710;28;20850;-84
2022/07/18 04:35:23;;;;;;;11.60;2.17;;;12.90;97.30;;;;;;5062508;28;20428;-85
2022/07/18 04:37:49;;;;;;;3.10;2.93;;;13.00;97.30;;;;;;5070606;28;20198;-85
2022/07/18 04:40:15;;;;;;;1.47;1.37;;;13.00;97.30;;;;;;5070767;28;20445;-84
2022/07/18 04:42:41;;;;;;;2.77;2.13;;;13.10;97.30;;;;;;5070667;28;20869;-85
2022/07/18 04:45:07;;;;;;;5.17;2.20;;;13.10;97.30;;;;;;5063329;28;20421;-84
2022/07/18 04:47:33;;;;;;;2.13;1.90;;;13.20;97.30;;;;;;5070220;28;20202;-84
2022/07/18 04:49:59;;;;;;;1.80;1.70;;;13.30;97.30;;;;;;5070985;28;20428;-84
2022/07/18 04:52:25;;;;;;;1.30;1.23;;;13.30;97.30;;;;;;5058462;28;20453;-85
2022/07/18 04:54:50;;;;;;;1.57;1.53;;;13.40;97.30;;;;;;5065128;28;20665;-85
2022/07/18 04:57:16;;;;;;;1.37;1.30;;;13.40;97.30;;;;;;5059837;28;20181;-85
2022/07/18 04:59:42;;;;;;;1.73;1.73;;;13.50;97.30;;;;;;5068276;28;20182;-85
2022/07/18 05:02:09;;;;;;;2.90;1.83;;;13.50;97.30;;;;;;5068097;28;20665;-86
2022/07/18 05:04:35;;;;;;;1.87;1.77;;;13.60;97.30;;;;;;5068071;28;20433;-86
2022/07/18 05:07:01;;;;;;;3.17;2.33;;;13.60;97.30;;;;;;5056151;28;20505;-86
2022/07/18 05:09:28;;;;;;;3.17;2.13;;;13.70;97.30;;;;;;5067770;28;20525;-86
2022/07/18 05:11:53;;;;;;;2.90;2.03;;;13.70;97.30;;;;;;5068140;28;20194;-86
2022/07/18 05:14:20;;;;;;;1.30;1.20;;;13.80;97.30;;;;;;5070765;28;20421;-86
2022/07/18 05:16:46;;;;;;;4.10;1.77;;;13.80;97.30;;;;;;5070237;28;20258;-85
2022/07/18 05:19:12;;;;;;;1.30;1.20;;;13.90;97.30;;;;;;5069352;28;20468;-86
2022/07/18 05:21:37;;;;;;;2.33;2.03;;;13.90;97.30;;;;;;5070094;28;20175;-85
2022/07/18 05:24:03;;;;;;;3.67;2.13;;;14.00;97.30;;;;;;5069239;28;20186;-86
2022/07/18 05:26:29;;;;;;;1.40;1.33;;;14.00;97.30;;;;;;5071077;28;20186;-86
2022/07/18 05:28:54;;;;;;;1.30;1.30;;;14.10;97.30;;;;;;5068956;28;20210;-86
2022/07/18 05:31:20;;;;;;;2.00;1.60;;;14.20;97.30;;;;;;5069586;28;20203;-86
2022/07/18 05:33:45;;;;;;;2.50;2.10;;;14.20;97.30;;;;;;5069821;28;20175;-85
2022/07/18 05:36:11;;;;;;;1.00;1.00;;;14.30;97.30;;;;;;5069636;28;20236;-85
2022/07/18 05:38:36;;;;;;;2.50;2.30;;;14.40;97.30;;;;;;5063799;28;20192;-85
2022/07/18 05:41:02;;;;;;;6.27;2.63;;;14.50;97.30;;;;;;5061345;28;20558;-86
2022/07/18 05:43:28;;;;;;;2.23;1.57;;;14.60;97.30;;;;;;5068835;28;20178;-86
2022/07/18 05:45:53;;;;;;;2.23;2.07;;;14.80;97.30;;;;;;5068964;28;20599;-85
2022/07/18 05:48:19;;;;;;;2.50;2.30;;;14.80;97.30;;;;;;5069631;28;20352;-86
2022/07/18 05:50:44;;;;;;;2.73;1.50;;;14.90;97.30;;;;;;5068513;28;20175;-86
2022/07/18 05:53:11;;;;;;;1.70;1.63;;;15.00;97.30;;;;;;5063511;28;20286;-86
2022/07/18 05:55:37;;;;;;;3.83;2.00;;;15.10;97.30;;;;;;5064600;28;20398;-86
2022/07/18 05:58:02;;;;;;;2.10;1.70;;;15.20;97.30;;;;;;5069133;28;20433;-86
2022/07/18 06:00:29;;;;;;;1.10;1.00;;;15.30;97.30;;;;;;5070320;28;20178;-86
2022/07/18 06:02:55;;;;;;;2.07;1.93;;;15.40;97.30;;;;;;5069032;28;20183;-86
2022/07/18 06:05:20;;;;;;;1.27;1.27;;;15.50;97.30;;;;;;5068604;28;20425;-86
2022/07/18 06:07:46;;;;;;;1.50;1.30;;;15.60;97.30;;;;;;5068793;28;20203;-86
2022/07/18 06:10:12;;;;;;;2.30;1.90;;;15.70;97.30;;;;;;5067535;28;20692;-85
2022/07/18 06:12:38;;;;;;;2.67;1.83;;;15.90;97.30;;;;;;5057999;28;20294;-86
2022/07/18 06:15:04;;;;;;;2.60;2.10;;;16.00;97.30;;;;;;5070319;28;20210;-86
2022/07/18 06:17:29;;;;;;;1.80;1.40;;;16.10;97.30;;;;;;5068382;28;20412;-86
2022/07/18 06:19:55;;;;;;;2.17;2.00;;;16.20;97.30;;;;;;5068823;28;20769;-86
2022/07/18 06:22:22;;;;;;;9.83;2.17;;;16.30;97.30;;;;;;5069165;28;20686;-86
2022/07/18 06:24:48;;;;;;;5.13;1.73;;;16.40;97.30;;;;;;5069072;28;20414;-86
2022/07/18 06:27:13;;;;;;;1.40;1.30;;;16.50;97.30;;;;;;5068796;28;20958;-86
2022/07/18 06:29:39;;;;;;;4.80;2.13;;;16.60;97.30;;;;;;5068760;28;20928;-86
2022/07/18 06:32:05;;;;;;;4.80;3.10;;;16.70;97.30;;;;;;5068711;28;20206;-85
2022/07/18 06:34:31;;;;;;;6.10;1.40;;;16.90;97.30;;;;;;5067557;28;20183;-86
2022/07/18 06:36:56;;;;;;;4.23;2.00;;;17.00;96.80;;;;;;5068455;28;20425;-86
2022/07/18 06:39:22;;;;;;;2.53;2.00;;;17.10;96.70;;;;;;5068753;28;20676;-86
2022/07/18 06:41:47;;;;;;;1.43;1.33;;;17.20;96.10;;;;;;5068512;28;20179;-86
2022/07/18 06:44:13;;;;;;;1.47;1.43;;;17.40;95.80;;;;;;5068346;28;20187;-86
2022/07/18 06:46:39;;;;;;;1.47;1.37;;;17.50;95.70;;;;;;5060589;28;20302;-86
2022/07/18 06:49:05;;;;;;;2.30;1.40;;;17.60;95.60;;;;;;5065234;28;20504;-86
2022/07/18 06:51:31;;;;;;;0.97;0.93;;;17.80;95.20;;;;;;5068622;28;20202;-86
2022/07/18 06:53:57;;;;;;;4.70;1.40;;;17.90;95.10;;;;;;5068573;28;20182;-86
2022/07/18 06:56:22;;;;;;;8.30;1.40;;;18.00;94.90;;;;;;5068781;28;20413;-85
2022/07/18 06:58:49;;;;;;;2.00;1.53;;;18.10;94.40;;;;;;5068121;28;20806;-86
2022/07/18 07:01:16;;;;;;;1.10;1.00;;;18.20;94.20;;;;;;5069349;28;20175;-86
2022/07/18 07:03:42;;;;;;;1.27;1.10;;;18.30;93.40;;;;;;5073757;28;20413;-86
2022/07/18 07:06:08;;;;;;;1.33;1.20;;;18.40;92.30;;;;;;5072264;28;20414;-86
2022/07/18 07:08:34;;;;;;;2.90;1.30;;;18.50;92.10;;;;;;5071702;28;20195;-86
2022/07/18 07:10:59;;;;;;;1.10;1.00;;;18.70;91.70;;;;;;5072239;28;20182;-86
2022/07/18 07:13:25;;;;;;;1.50;1.40;;;18.80;91.20;;;;;;5072319;28;20278;-86
2022/07/18 07:15:51;;;;;;;1.53;0.90;;;18.90;90.90;;;;;;5072484;28;20233;-86
2022/07/18 07:18:16;;;;;;;1.37;1.30;;;19.10;89.30;;;;;;5071122;28;20203;-86
2022/07/18 07:20:42;;;;;;;1.00;0.90;;;19.20;88.70;;;;;;5071512;28;20189;-86
2022/07/18 07:23:08;;;;;;;2.07;1.60;;;19.40;87.80;;;;;;5071856;28;20186;-86
2022/07/18 07:25:35;;;;;;;1.33;1.27;;;19.50;87.20;;;;;;5071590;28;20175;-85
2022/07/18 07:28:01;;;;;;;1.40;1.40;;;19.60;87.90;;;;;;5072669;28;20449;-86
2022/07/18 07:30:27;;;;;;;2.40;1.20;;;19.70;87.60;;;;;;5072018;28;20468;-86
2022/07/18 07:32:52;;;;;;;1.30;1.20;;;19.90;87.00;;;;;;5071698;28;20457;-86
2022/07/18 07:35:19;;;;;;;1.57;1.47;;;20.00;86.30;;;;;;5071780;28;20653;-86
2022/07/18 07:37:59;;;;;;;0.97;0.90;;;20.20;85.70;;;;;;5071297;28;20714;-86
2022/07/18 07:40:26;;;;;;;1.20;1.10;;;20.30;85.00;;;;;;5071613;28;20421;-86
2022/07/18 07:42:52;;;;;;;6.63;1.33;;;20.40;83.40;;;;;;5072914;28;20440;-86
2022/07/18 07:45:18;;;;;;;1.10;1.00;;;20.50;83.10;;;;;;5071306;28;20417;-86
2022/07/18 07:47:44;;;;;;;1.37;1.03;;;20.70;81.90;;;;;;5071316;28;20207;-86
2022/07/18 07:50:11;;;;;;;2.20;2.00;;;20.80;81.50;;;;;;5070974;28;20479;-86
2022/07/18 07:52:37;;;;;;;1.10;1.00;;;20.90;81.60;;;;;;5070787;28;20227;-86
2022/07/18 07:55:04;;;;;;;1.03;1.00;;;21.00;81.70;;;;;;5071168;28;20450;-86
2022/07/18 07:57:30;;;;;;;1.13;1.03;;;21.20;80.00;;;;;;5070766;28;20479;-86
2022/07/18 07:59:55;;;;;;;1.33;1.03;;;21.30;78.50;;;;;;5070821;28;20414;-86
2022/07/18 08:02:21;;;;;;;1.10;1.00;;;21.40;78.90;;;;;;5067274;28;20429;-86
2022/07/18 08:04:47;;;;;;;4.10;2.07;;;21.50;79.50;;;;;;5062497;28;20704;-86
2022/07/18 08:07:12;;;;;;;2.20;1.73;;;21.60;79.20;;;;;;5060476;28;20185;-86
2022/07/18 08:09:38;;;;;;;6.83;1.10;;;21.80;79.30;;;;;;5070767;28;20187;-86
2022/07/18 08:12:05;;;;;;;1.63;1.50;;;21.90;78.60;;;;;;5070637;28;20202;-87
2022/07/18 08:14:33;;;;;;;1.30;1.20;;;22.00;78.00;;;;;;5070007;28;20265;-86
2022/07/18 08:16:59;;;;;;;1.10;1.00;;;22.10;77.80;;;;;;5071849;28;21181;-86
2022/07/18 08:19:24;;;;;;;2.70;1.63;;;22.20;77.70;;;;;;5070374;28;20441;-86
2022/07/18 08:21:50;;;;;;;3.97;2.00;;;22.30;78.40;;;;;;5070294;28;20414;-86
2022/07/18 08:24:15;;;;;;;1.50;1.40;;;22.30;78.00;;;;;;5070858;28;20184;-86
2022/07/18 08:26:41;;;;;;;1.07;1.00;;;22.40;78.90;;;;;;5071985;28;20183;-87
2022/07/18 08:29:07;;;;;;;1.10;1.00;;;22.50;76.00;;;;;;5070455;28;20773;-86
2022/07/18 08:31:33;;;;;;;4.93;1.50;;;22.60;76.70;;;;;;5070542;28;20660;-87
2022/07/18 08:33:59;;;;;;;1.20;1.10;;;22.70;76.00;;;;;;5070825;28;20417;-87
2022/07/18 08:36:25;;;;;;;1.97;1.60;;;22.80;76.10;;;;;;5070597;28;20413;-87
2022/07/18 08:38:50;;;;;;;1.83;1.53;;;22.90;74.80;;;;;;5069696;28;20547;-86
2022/07/18 08:41:22;;;;;;;1.03;0.97;;;23.00;73.80;;;;;;5069769;28;20176;-87
2022/07/18 08:43:48;;;;;;;2.50;1.53;;;23.10;74.50;;;;;;5070118;28;20183;-86
2022/07/18 08:46:18;;;;;;;2.00;1.93;;;23.20;73.80;;;;;;5069925;28;20431;-87
2022/07/18 08:48:44;;;;;;;1.60;1.20;;;23.20;73.30;;;;;;5070082;28;20441;-86
2022/07/18 08:51:09;;;;;;;1.63;1.20;;;23.30;73.80;;;;;;5070570;28;20483;-87
2022/07/18 08:53:37;;;;;;;1.17;1.10;;;23.30;74.80;;;;;;5070154;28;20542;-86
2022/07/18 08:56:03;;;;;;;1.37;1.27;;;23.40;75.00;;;;;;5069835;28;20201;-87
2022/07/18 08:58:29;;;;;;;1.10;1.00;;;23.50;74.90;;;;;;5069895;28;20935;-87
2022/07/18 09:00:54;;;;;;;2.20;1.63;;;23.70;73.90;;;;;;5069712;28;20425;-87
2022/07/18 09:03:20;;;;;;;1.60;1.50;;;23.80;74.50;;;;;;5069542;28;20179;-87
2022/07/18 09:05:46;;;;;;;1.10;1.00;;;23.90;74.20;;;;;;5055874;28;20179;-87
2022/07/18 09:08:22;;;;;;;0.90;0.80;;;24.00;73.00;;;;;;5069542;28;20203;-87
2022/07/18 09:10:53;;;;;;;2.70;1.00;;;24.10;73.00;;;;;;5069601;28;20413;-87
2022/07/18 09:13:22;;;;;;;1.10;1.00;;;24.20;73.20;;;;;;5068834;28;20575;-87
2022/07/18 09:16:05;;;;;;;1.03;0.93;;;24.30;73.60;;;;;;5069403;28;20481;-87
2022/07/18 09:18:38;;;;;;;0.90;0.80;;;24.40;73.00;;;;;;5069209;28;21037;-87
2022/07/18 09:21:05;;;;;;;1.53;1.20;;;24.50;71.30;;;;;;5070610;28;20972;-88
2022/07/18 09:23:33;;;;;;;0.97;0.87;;;24.60;68.50;;;;;;5071396;28;20791;-87
2022/07/18 09:25:59;;;;;;;1.10;1.00;;;24.60;68.70;;;;;;5069362;28;20793;-87
2022/07/18 09:28:29;;;;;;;4.33;1.73;;;24.60;69.00;;;;;;5070670;28;20437;-87
2022/07/18 09:30:56;;;;;;;1.20;1.10;;;24.60;67.50;;;;;;5069214;28;20440;-86
2022/07/18 09:33:22;;;;;;;1.07;0.97;;;24.70;68.50;;;;;;5068076;28;20836;-86
2022/07/18 09:35:51;;;;;;;1.57;1.23;;;24.80;68.80;;;;;;5069273;28;20796;-87
2022/07/18 09:38:18;;;;;;;1.20;1.20;;;24.90;69.20;;;;;;5068698;28;20444;-87
2022/07/18 09:40:49;;;;;;;1.30;1.20;;;25.10;68.70;;;;;;5068958;28;21015;-87
2022/07/18 09:43:19;;;;;;;1.30;1.10;;;25.10;68.80;;;;;;5056813;28;20478;-86
2022/07/18 09:45:47;;;;;;;1.00;1.00;;;25.20;68.20;;;;;;5069056;28;20417;-87
2022/07/18 09:48:16;;;;;;;1.83;1.00;;;25.30;68.20;;;;;;5068852;28;20472;-87
2022/07/18 09:50:51;;;;;;;2.23;1.40;;;25.40;68.50;;;;;;5068705;28;20418;-87
2022/07/18 09:53:23;;;;;;;2.27;2.00;;;25.50;67.10;;;;;;5070422;28;20460;-87
2022/07/18 09:55:50;;;;;;;1.20;1.10;;;25.50;67.60;;;;;;5068535;28;20423;-87
2022/07/18 09:58:21;;;;;;;1.53;1.00;;;25.60;69.00;;;;;;5068979;28;20445;-87
2022/07/18 10:00:48;;;;;;;1.33;1.23;;;25.70;68.50;;;;;;5069006;28;20967;-87
2022/07/18 10:03:13;;;;;;;3.50;1.70;;;25.80;68.60;;;;;;5070184;28;20502;-87
2022/07/18 10:05:42;;;;;;;1.20;1.10;;;25.80;68.40;;;;;;5068892;28;20437;-87
2022/07/18 10:08:10;;;;;;;1.10;1.00;;;25.90;68.40;;;;;;5069098;28;20306;-86
2022/07/18 10:10:37;;;;;;;1.67;1.13;;;26.00;66.50;;;;;;5067799;28;20796;-87
2022/07/18 10:13:04;;;;;;;3.83;1.53;;;26.00;67.10;;;;;;5068876;28;20461;-87
2022/07/18 10:15:33;;;;;;;1.00;0.90;;;26.10;67.30;;;;;;5070429;28;20895;-87
2022/07/18 10:17:59;;;;;;;1.10;1.00;;;26.20;67.70;;;;;;5070463;28;20762;-87
2022/07/18 10:20:31;;;;;;;3.93;1.90;;;26.20;67.30;;;;;;5068893;28;20448;-86
2022/07/18 10:23:01;;;;;;;1.27;1.27;;;26.30;67.00;;;;;;5069325;28;20950;-88
2022/07/18 10:25:27;;;;;;;2.07;1.40;;;26.40;67.00;;;;;;5068864;28;20425;-87
2022/07/18 10:28:08;;;;;;;7.90;2.90;;;26.40;66.70;;;;;;5067584;28;20494;-87
2022/07/18 10:30:44;;;;;;;4.53;1.83;;;26.40;66.60;;;;;;5058778;28;20692;-86
2022/07/18 10:33:43;;;;;;;1.43;1.33;;;26.50;66.10;;;;;;5068398;28;20499;-87
2022/07/18 10:36:16;;;;;;;2.23;1.40;;;26.50;65.20;;;;;;5070258;28;20450;-87
2022/07/18 10:39:07;;;;;;;1.13;1.03;;;26.60;65.00;;;;;;5063255;28;20963;-85
2022/07/18 10:41:38;;;;;;;4.07;1.73;;;26.60;66.20;;;;;;5076819;28;20444;-87
2022/07/18 10:44:34;;;;;;;1.67;1.60;;;26.70;67.00;;;;;;5072379;28;20932;-87
2022/07/18 10:47:03;;;;;;;5.80;1.77;;;26.80;67.70;;;;;;5072269;28;21010;-87
2022/07/18 10:49:47;;;;;;;4.20;2.00;;;26.90;66.30;;;;;;5072414;28;20461;-87
2022/07/18 10:52:25;;;;;;;1.00;0.90;;;26.90;65.80;;;;;;5072078;28;20464;-87
2022/07/18 10:55:03;;;;;;;1.40;1.10;;;26.90;63.90;;;;;;5072387;28;20421;-87
2022/07/18 10:57:32;;;;;;;3.57;1.57;;;27.00;64.60;;;;;;5071997;28;20417;-87
2022/07/18 11:00:01;;;;;;;4.83;1.23;;;27.00;65.70;;;;;;5072696;28;20447;-87
2022/07/18 11:02:47;;;;;;;1.17;1.00;;;27.10;65.40;;;;;;5072243;28;20435;-87
2022/07/18 11:05:25;;;;;;;2.87;1.33;;;27.10;65.10;;;;;;5059636;28;20509;-87
2022/07/18 11:08:05;;;;;;;1.53;1.00;;;27.20;65.00;;;;;;5072274;28;20432;-87
2022/07/18 11:13:22;;;;;;;5.10;1.50;;;27.30;65.10;;;;;;5074042;28;20461;-88
2022/07/18 11:16:17;;;;;;;1.10;0.97;;;27.40;65.20;;;;;;5072065;28;20512;-87
2022/07/18 11:18:43;;;;;;;1.07;0.87;;;27.50;66.00;;;;;;5071814;28;20443;-87
2022/07/18 11:21:21;;;;;;;1.63;1.10;;;27.60;66.30;;;;;;5072406;28;20471;-87
2022/07/18 11:23:50;;;;;;;1.50;1.40;;;27.80;66.80;;;;;;5071917;28;20961;-87
2022/07/18 11:26:17;;;;;;;1.30;1.20;;;27.90;64.80;;;;;;5072220;28;20840;-87
2022/07/18 11:28:43;;;;;;;1.30;1.20;;;27.90;65.00;;;;;;5071948;28;20484;-87
2022/07/18 11:31:12;;;;;;;2.00;1.30;;;28.00;65.20;;;;;;5072987;28;20424;-87
2022/07/18 11:33:41;;;;;;;1.60;1.50;;;28.00;65.20;;;;;;5071209;28;20184;-87
2022/07/18 11:36:12;;;;;;;1.57;1.20;;;28.00;64.00;;;;;;5058426;28;20422;-87
2022/07/18 11:38:46;;;;;;;1.03;0.97;;;28.00;64.10;;;;;;5072351;28;20445;-88
2022/07/18 11:41:12;;;;;;;1.00;0.90;;;28.00;64.90;;;;;;5071510;28;20466;-87
2022/07/18 11:43:37;;;;;;;1.10;1.00;;;28.10;65.50;;;;;;5071898;28;20900;-87
2022/07/18 11:46:09;;;;;;;1.10;1.00;;;28.20;65.50;;;;;;5071626;28;20623;-87
2022/07/18 11:48:36;;;;;;;1.30;1.23;;;28.30;64.00;;;;;;5069666;28;20248;-87
2022/07/18 11:51:08;;;;;;;1.27;1.17;;;28.40;62.70;;;;;;5070974;28;20445;-87
2022/07/18 11:53:33;;;;;;;3.17;1.53;;;28.40;63.60;;;;;;5071268;28;20587;-87
2022/07/18 11:56:04;;;;;;;1.17;1.07;;;28.50;64.40;;;;;;5071470;28;20445;-87
2022/07/18 11:58:39;;;;;;;1.10;1.00;;;28.50;63.90;;;;;;5059119;28;20227;-87
2022/07/18 12:01:05;;;;;;;0.83;0.83;;;28.60;64.40;;;;;;5059143;28;20498;-88
2022/07/18 12:03:34;;;;;;;1.20;1.10;;;28.70;63.30;;;;;;5072249;28;20425;-87
2022/07/18 12:06:17;;;;;;;1.03;1.00;;;28.80;62.60;;;;;;5071150;28;20434;-87
2022/07/18 12:09:00;;;;;;;1.33;1.27;;;28.90;62.40;;;;;;5060143;28;20464;-87
2022/07/18 12:11:28;;;;;;;1.20;1.00;;;29.00;63.10;;;;;;5051605;28;20441;-87
2022/07/18 12:13:55;;;;;;;2.50;1.60;;;29.00;63.30;;;;;;5066097;28;20420;-88
2022/07/18 12:16:34;;;;;;;3.07;1.00;;;29.10;62.60;;;;;;5071468;28;20428;-87
2022/07/18 12:19:12;;;;;;;1.63;1.00;;;29.20;63.30;;;;;;5070818;28;20469;-87
2022/07/18 12:21:45;;;;;;;1.20;1.10;;;29.20;61.70;;;;;;5070947;28;20432;-87
2022/07/18 12:24:38;;;;;;;1.60;0.80;;;29.20;62.00;;;;;;5071199;28;20977;-87
2022/07/18 12:27:18;;;;;;;1.27;1.20;;;29.20;61.10;;;;;;5058464;28;20417;-87
2022/07/18 12:30:05;;;;;;;2.63;1.03;;;29.30;63.10;;;;;;5070421;28;20536;-87
2022/07/18 12:33:10;;;;;;;1.73;1.13;;;29.40;63.20;;;;;;5069689;28;21000;-87
2022/07/18 12:35:37;;;;;;;1.07;0.97;;;29.50;62.50;;;;;;5049166;28;20513;-88
2022/07/18 12:38:15;;;;;;;1.57;1.47;;;29.70;63.90;;;;;;5050342;28;20433;-88
2022/07/18 12:40:52;;;;;;;1.13;0.80;;;29.70;62.80;;;;;;5049599;28;20463;-87
2022/07/18 12:43:38;;;;;;;1.37;1.27;;;29.80;62.60;;;;;;5070078;28;20435;-87
2022/07/18 12:46:07;;;;;;;0.87;0.80;;;29.90;62.40;;;;;;5070703;28;20805;-88
2022/07/18 12:48:34;;;;;;;1.53;1.43;;;29.90;62.80;;;;;;5070880;28;20437;-88
2022/07/18 12:51:08;;;;;;;1.47;1.17;;;30.00;62.80;;;;;;5070851;28;20429;-87
2022/07/18 12:53:38;;;;;;;1.73;0.93;;;30.00;61.00;;;;;;5070005;28;20468;-87
2022/07/18 12:56:05;;;;;;;1.00;0.90;;;29.90;61.60;;;;;;5064176;28;20808;-87